sensor_id;sensor_type;location;lat;lon;timestamp;temperature;humidity
68867;SHT30;56451;44.804;20.476;2023-05-23T00:00:56;20.44;57.46
68867;SHT30;56451;44.804;20.476;2023-05-23T00:03:26;20.45;57.40
68867;SHT30;56451;44.804;20.476;2023-05-23T00:05:53;20.51;56.99
68867;SHT30;56451;44.804;20.476;2023-05-23T00:08:21;20.49;56.93
68867;SHT30;56451;44.804;20.476;2023-05-23T00:10:47;20.48;57.02
68867;SHT30;56451;44.804;20.476;2023-05-23T00:13:13;20.48;57.04
68867;SHT30;56451;44.804;20.476;2023-05-23T00:15:40;20.48;57.01
68867;SHT30;56451;44.804;20.476;2023-05-23T00:18:07;20.47;57.08
68867;SHT30;56451;44.804;20.476;2023-05-23T00:20:37;20.45;57.10
68867;SHT30;56451;44.804;20.476;2023-05-23T00:23:06;20.47;57.11
68867;SHT30;56451;44.804;20.476;2023-05-23T00:25:35;20.47;56.80
68867;SHT30;56451;44.804;20.476;2023-05-23T00:28:03;20.44;56.79
68867;SHT30;56451;44.804;20.476;2023-05-23T00:30:30;20.45;56.81
68867;SHT30;56451;44.804;20.476;2023-05-23T00:32:57;20.44;56.77
68867;SHT30;56451;44.804;20.476;2023-05-23T00:35:23;20.41;56.93
68867;SHT30;56451;44.804;20.476;2023-05-23T00:37:50;20.42;57.06
68867;SHT30;56451;44.804;20.476;2023-05-23T00:40:25;20.41;57.17
68867;SHT30;56451;44.804;20.476;2023-05-23T00:42:52;20.42;57.22
68867;SHT30;56451;44.804;20.476;2023-05-23T00:45:18;20.44;57.22
68867;SHT30;56451;44.804;20.476;2023-05-23T00:47:45;20.44;57.04
68867;SHT30;56451;44.804;20.476;2023-05-23T00:50:12;20.44;56.97
68867;SHT30;56451;44.804;20.476;2023-05-23T00:52:43;20.47;56.83
68867;SHT30;56451;44.804;20.476;2023-05-23T00:55:11;20.42;56.88
68867;SHT30;56451;44.804;20.476;2023-05-23T00:57:37;20.44;56.92
68867;SHT30;56451;44.804;20.476;2023-05-23T01:00:07;20.40;57.05
68867;SHT30;56451;44.804;20.476;2023-05-23T01:02:39;20.40;57.14
68867;SHT30;56451;44.804;20.476;2023-05-23T01:05:09;20.38;57.19
68867;SHT30;56451;44.804;20.476;2023-05-23T01:07:36;20.41;57.16
68867;SHT30;56451;44.804;20.476;2023-05-23T01:10:03;20.41;57.26
68867;SHT30;56451;44.804;20.476;2023-05-23T01:15:16;20.37;57.65
68867;SHT30;56451;44.804;20.476;2023-05-23T01:18:09;20.37;57.86
68867;SHT30;56451;44.804;20.476;2023-05-23T01:20:42;20.33;57.95
68867;SHT30;56451;44.804;20.476;2023-05-23T01:23:35;20.34;58.09
68867;SHT30;56451;44.804;20.476;2023-05-23T01:28:50;20.27;58.28
68867;SHT30;56451;44.804;20.476;2023-05-23T01:31:21;20.24;58.29
68867;SHT30;56451;44.804;20.476;2023-05-23T01:33:50;20.25;58.38
68867;SHT30;56451;44.804;20.476;2023-05-23T01:36:19;20.23;58.46
68867;SHT30;56451;44.804;20.476;2023-05-23T01:38:46;20.16;58.69
68867;SHT30;56451;44.804;20.476;2023-05-23T01:41:12;20.18;58.76
68867;SHT30;56451;44.804;20.476;2023-05-23T01:43:38;20.18;58.51
68867;SHT30;56451;44.804;20.476;2023-05-23T01:46:06;20.16;58.62
68867;SHT30;56451;44.804;20.476;2023-05-23T01:48:32;20.13;58.77
68867;SHT30;56451;44.804;20.476;2023-05-23T01:50:58;20.03;59.27
68867;SHT30;56451;44.804;20.476;2023-05-23T01:53:25;19.90;59.73
68867;SHT30;56451;44.804;20.476;2023-05-23T01:55:51;19.76;60.55
68867;SHT30;56451;44.804;20.476;2023-05-23T01:58:20;19.65;61.74
68867;SHT30;56451;44.804;20.476;2023-05-23T02:00:46;19.52;63.05
68867;SHT30;56451;44.804;20.476;2023-05-23T02:03:12;19.35;63.92
68867;SHT30;56451;44.804;20.476;2023-05-23T02:05:39;19.19;64.71
68867;SHT30;56451;44.804;20.476;2023-05-23T02:08:06;19.08;65.29
68867;SHT30;56451;44.804;20.476;2023-05-23T02:10:32;18.97;65.61
68867;SHT30;56451;44.804;20.476;2023-05-23T02:12:59;18.96;66.26
68867;SHT30;56451;44.804;20.476;2023-05-23T02:15:27;18.90;66.80
68867;SHT30;56451;44.804;20.476;2023-05-23T02:17:52;18.91;66.72
68867;SHT30;56451;44.804;20.476;2023-05-23T02:20:18;18.94;66.79
68867;SHT30;56451;44.804;20.476;2023-05-23T02:22:47;18.96;66.63
68867;SHT30;56451;44.804;20.476;2023-05-23T02:25:13;18.98;66.42
68867;SHT30;56451;44.804;20.476;2023-05-23T02:27:40;19.06;66.42
68867;SHT30;56451;44.804;20.476;2023-05-23T02:30:06;19.04;66.72
68867;SHT30;56451;44.804;20.476;2023-05-23T02:32:32;18.97;67.39
68867;SHT30;56451;44.804;20.476;2023-05-23T02:35:00;18.94;66.10
68867;SHT30;56451;44.804;20.476;2023-05-23T02:37:26;18.87;66.27
68867;SHT30;56451;44.804;20.476;2023-05-23T02:39:52;18.81;65.97
68867;SHT30;56451;44.804;20.476;2023-05-23T02:42:18;18.81;65.44
68867;SHT30;56451;44.804;20.476;2023-05-23T02:44:44;18.80;65.38
68867;SHT30;56451;44.804;20.476;2023-05-23T02:47:10;18.78;65.76
68867;SHT30;56451;44.804;20.476;2023-05-23T02:49:36;18.77;65.74
68867;SHT30;56451;44.804;20.476;2023-05-23T02:52:02;18.78;65.28
68867;SHT30;56451;44.804;20.476;2023-05-23T02:54:28;18.81;65.28
68867;SHT30;56451;44.804;20.476;2023-05-23T02:56:54;18.87;65.48
68867;SHT30;56451;44.804;20.476;2023-05-23T02:59:21;18.94;65.53
68867;SHT30;56451;44.804;20.476;2023-05-23T03:01:47;18.98;65.33
68867;SHT30;56451;44.804;20.476;2023-05-23T03:04:13;18.98;65.30
68867;SHT30;56451;44.804;20.476;2023-05-23T03:06:39;19.03;65.31
68867;SHT30;56451;44.804;20.476;2023-05-23T03:09:08;19.06;65.00
68867;SHT30;56451;44.804;20.476;2023-05-23T03:11:35;19.08;64.29
68867;SHT30;56451;44.804;20.476;2023-05-23T03:14:02;19.08;63.95
68867;SHT30;56451;44.804;20.476;2023-05-23T03:16:28;19.11;63.97
68867;SHT30;56451;44.804;20.476;2023-05-23T03:18:54;19.10;63.87
68867;SHT30;56451;44.804;20.476;2023-05-23T03:21:20;19.06;63.49
68867;SHT30;56451;44.804;20.476;2023-05-23T03:23:46;19.08;63.32
68867;SHT30;56451;44.804;20.476;2023-05-23T03:26:12;19.10;63.21
68867;SHT30;56451;44.804;20.476;2023-05-23T03:28:38;19.11;63.07
68867;SHT30;56451;44.804;20.476;2023-05-23T03:31:04;19.11;62.91
68867;SHT30;56451;44.804;20.476;2023-05-23T03:33:30;19.10;62.83
68867;SHT30;56451;44.804;20.476;2023-05-23T03:35:56;19.12;62.86
68867;SHT30;56451;44.804;20.476;2023-05-23T03:38:22;19.12;62.83
68867;SHT30;56451;44.804;20.476;2023-05-23T03:40:48;19.14;62.76
68867;SHT30;56451;44.804;20.476;2023-05-23T03:43:16;19.18;62.71
68867;SHT30;56451;44.804;20.476;2023-05-23T03:45:42;19.15;62.77
68867;SHT30;56451;44.804;20.476;2023-05-23T03:48:14;19.18;62.79
68867;SHT30;56451;44.804;20.476;2023-05-23T03:50:42;19.21;62.58
68867;SHT30;56451;44.804;20.476;2023-05-23T03:53:09;19.22;62.40
68867;SHT30;56451;44.804;20.476;2023-05-23T03:55:37;19.24;62.22
68867;SHT30;56451;44.804;20.476;2023-05-23T03:58:03;19.22;62.24
68867;SHT30;56451;44.804;20.476;2023-05-23T04:00:29;19.25;62.23
68867;SHT30;56451;44.804;20.476;2023-05-23T04:02:57;19.25;61.98
68867;SHT30;56451;44.804;20.476;2023-05-23T04:05:23;19.27;61.99
68867;SHT30;56451;44.804;20.476;2023-05-23T04:07:50;19.28;62.14
68867;SHT30;56451;44.804;20.476;2023-05-23T04:10:18;19.35;61.89
68867;SHT30;56451;44.804;20.476;2023-05-23T04:12:45;19.36;61.57
68867;SHT30;56451;44.804;20.476;2023-05-23T04:15:14;19.39;61.46
68867;SHT30;56451;44.804;20.476;2023-05-23T04:17:52;19.44;61.32
68867;SHT30;56451;44.804;20.476;2023-05-23T04:20:18;19.46;61.21
68867;SHT30;56451;44.804;20.476;2023-05-23T04:22:44;19.49;61.07
68867;SHT30;56451;44.804;20.476;2023-05-23T04:25:10;19.49;60.80
68867;SHT30;56451;44.804;20.476;2023-05-23T04:27:50;19.55;60.62
68867;SHT30;56451;44.804;20.476;2023-05-23T04:30:16;19.56;60.22
68867;SHT30;56451;44.804;20.476;2023-05-23T04:32:43;19.61;59.66
68867;SHT30;56451;44.804;20.476;2023-05-23T04:35:09;19.59;59.52
68867;SHT30;56451;44.804;20.476;2023-05-23T04:37:38;19.61;59.55
68867;SHT30;56451;44.804;20.476;2023-05-23T04:40:05;19.63;59.57
68867;SHT30;56451;44.804;20.476;2023-05-23T04:42:52;19.66;59.35
68867;SHT30;56451;44.804;20.476;2023-05-23T04:45:29;19.73;59.35
68867;SHT30;56451;44.804;20.476;2023-05-23T04:48:02;19.72;58.61
68867;SHT30;56451;44.804;20.476;2023-05-23T04:50:38;19.76;58.35
68867;SHT30;56451;44.804;20.476;2023-05-23T04:53:05;19.72;58.48
68867;SHT30;56451;44.804;20.476;2023-05-23T04:55:31;19.72;58.39
68867;SHT30;56451;44.804;20.476;2023-05-23T04:57:59;19.73;58.63
68867;SHT30;56451;44.804;20.476;2023-05-23T05:00:25;19.72;59.00
68867;SHT30;56451;44.804;20.476;2023-05-23T05:02:52;19.73;58.63
68867;SHT30;56451;44.804;20.476;2023-05-23T05:05:18;19.67;58.95
68867;SHT30;56451;44.804;20.476;2023-05-23T05:07:44;19.76;58.72
68867;SHT30;56451;44.804;20.476;2023-05-23T05:10:10;19.73;58.44
68867;SHT30;56451;44.804;20.476;2023-05-23T05:12:44;19.73;58.52
68867;SHT30;56451;44.804;20.476;2023-05-23T05:15:12;19.72;59.04
68867;SHT30;56451;44.804;20.476;2023-05-23T05:17:39;19.66;59.54
68867;SHT30;56451;44.804;20.476;2023-05-23T05:20:08;19.75;59.15
68867;SHT30;56451;44.804;20.476;2023-05-23T05:22:37;19.69;59.89
68867;SHT30;56451;44.804;20.476;2023-05-23T05:25:10;19.72;60.95
68867;SHT30;56451;44.804;20.476;2023-05-23T05:27:36;19.77;61.49
68867;SHT30;56451;44.804;20.476;2023-05-23T05:30:08;19.84;62.15
68867;SHT30;56451;44.804;20.476;2023-05-23T05:32:45;19.97;62.25
68867;SHT30;56451;44.804;20.476;2023-05-23T05:35:13;20.04;62.05
68867;SHT30;56451;44.804;20.476;2023-05-23T05:37:41;20.09;61.56
68867;SHT30;56451;44.804;20.476;2023-05-23T05:40:11;20.14;61.08
68867;SHT30;56451;44.804;20.476;2023-05-23T05:42:40;20.17;61.10
68867;SHT30;56451;44.804;20.476;2023-05-23T05:45:08;20.28;60.78
68867;SHT30;56451;44.804;20.476;2023-05-23T05:47:36;20.30;60.60
68867;SHT30;56451;44.804;20.476;2023-05-23T05:50:05;20.28;61.11
68867;SHT30;56451;44.804;20.476;2023-05-23T05:52:32;20.37;61.21
68867;SHT30;56451;44.804;20.476;2023-05-23T05:55:07;20.41;61.14
68867;SHT30;56451;44.804;20.476;2023-05-23T05:57:34;20.51;60.96
68867;SHT30;56451;44.804;20.476;2023-05-23T06:00:08;20.61;59.06
68867;SHT30;56451;44.804;20.476;2023-05-23T06:02:46;20.67;58.39
68867;SHT30;56451;44.804;20.476;2023-05-23T06:05:16;20.76;57.76
68867;SHT30;56451;44.804;20.476;2023-05-23T06:07:46;20.82;57.56
68867;SHT30;56451;44.804;20.476;2023-05-23T06:10:12;20.90;57.00
68867;SHT30;56451;44.804;20.476;2023-05-23T06:12:38;20.92;56.96
68867;SHT30;56451;44.804;20.476;2023-05-23T06:15:06;20.96;57.11
68867;SHT30;56451;44.804;20.476;2023-05-23T06:17:32;21.09;57.44
68867;SHT30;56451;44.804;20.476;2023-05-23T06:19:58;21.07;57.55
68867;SHT30;56451;44.804;20.476;2023-05-23T06:22:24;21.07;57.63
68867;SHT30;56451;44.804;20.476;2023-05-23T06:24:51;21.09;57.77
68867;SHT30;56451;44.804;20.476;2023-05-23T06:27:17;21.18;57.60
68867;SHT30;56451;44.804;20.476;2023-05-23T06:29:43;21.26;57.35
68867;SHT30;56451;44.804;20.476;2023-05-23T06:32:09;21.24;57.21
68867;SHT30;56451;44.804;20.476;2023-05-23T06:34:35;21.34;56.91
68867;SHT30;56451;44.804;20.476;2023-05-23T06:37:00;21.40;56.68
68867;SHT30;56451;44.804;20.476;2023-05-23T06:39:26;21.47;56.63
68867;SHT30;56451;44.804;20.476;2023-05-23T06:41:53;21.54;56.09
68867;SHT30;56451;44.804;20.476;2023-05-23T06:44:19;21.62;55.98
68867;SHT30;56451;44.804;20.476;2023-05-23T06:46:46;21.64;55.85
68867;SHT30;56451;44.804;20.476;2023-05-23T06:49:14;21.71;55.82
68867;SHT30;56451;44.804;20.476;2023-05-23T06:51:40;21.77;54.76
68867;SHT30;56451;44.804;20.476;2023-05-23T06:54:06;21.87;54.38
68867;SHT30;56451;44.804;20.476;2023-05-23T06:56:32;21.96;54.25
68867;SHT30;56451;44.804;20.476;2023-05-23T06:58:58;21.98;54.26
68867;SHT30;56451;44.804;20.476;2023-05-23T07:01:26;22.02;54.08
68867;SHT30;56451;44.804;20.476;2023-05-23T07:03:52;22.04;54.71
68867;SHT30;56451;44.804;20.476;2023-05-23T07:06:18;22.15;54.75
68867;SHT30;56451;44.804;20.476;2023-05-23T07:08:44;22.12;55.43
68867;SHT30;56451;44.804;20.476;2023-05-23T07:11:12;21.99;57.05
68867;SHT30;56451;44.804;20.476;2023-05-23T07:13:41;21.85;57.43
68867;SHT30;56451;44.804;20.476;2023-05-23T07:16:11;21.79;57.32
68867;SHT30;56451;44.804;20.476;2023-05-23T07:18:45;21.77;57.33
68867;SHT30;56451;44.804;20.476;2023-05-23T07:21:11;21.78;56.77
68867;SHT30;56451;44.804;20.476;2023-05-23T07:23:37;21.82;56.95
68867;SHT30;56451;44.804;20.476;2023-05-23T07:26:03;21.75;56.71
68867;SHT30;56451;44.804;20.476;2023-05-23T07:28:49;21.74;56.53
68867;SHT30;56451;44.804;20.476;2023-05-23T07:31:16;21.87;56.53
68867;SHT30;56451;44.804;20.476;2023-05-23T07:33:43;21.91;56.53
68867;SHT30;56451;44.804;20.476;2023-05-23T07:36:11;21.96;56.48
68867;SHT30;56451;44.804;20.476;2023-05-23T07:38:37;22.04;56.39
68867;SHT30;56451;44.804;20.476;2023-05-23T07:41:03;22.10;56.07
68867;SHT30;56451;44.804;20.476;2023-05-23T07:43:28;22.08;56.18
68867;SHT30;56451;44.804;20.476;2023-05-23T07:45:54;22.17;56.07
68867;SHT30;56451;44.804;20.476;2023-05-23T07:48:20;22.26;55.82
68867;SHT30;56451;44.804;20.476;2023-05-23T07:50:46;22.35;55.39
68867;SHT30;56451;44.804;20.476;2023-05-23T07:53:13;22.45;54.57
68867;SHT30;56451;44.804;20.476;2023-05-23T07:55:40;22.59;54.09
68867;SHT30;56451;44.804;20.476;2023-05-23T07:58:06;22.68;53.48
68867;SHT30;56451;44.804;20.476;2023-05-23T08:00:33;22.73;53.12
68867;SHT30;56451;44.804;20.476;2023-05-23T08:03:08;22.83;52.93
68867;SHT30;56451;44.804;20.476;2023-05-23T08:05:41;22.91;52.72
68867;SHT30;56451;44.804;20.476;2023-05-23T08:08:07;22.97;52.73
68867;SHT30;56451;44.804;20.476;2023-05-23T08:10:33;23.00;52.01
68867;SHT30;56451;44.804;20.476;2023-05-23T08:13:09;23.04;51.73
68867;SHT30;56451;44.804;20.476;2023-05-23T08:15:40;23.10;51.48
68867;SHT30;56451;44.804;20.476;2023-05-23T08:18:13;23.18;51.04
68867;SHT30;56451;44.804;20.476;2023-05-23T08:20:39;23.21;50.99
68867;SHT30;56451;44.804;20.476;2023-05-23T08:23:05;23.28;51.33
68867;SHT30;56451;44.804;20.476;2023-05-23T08:25:31;23.35;51.27
68867;SHT30;56451;44.804;20.476;2023-05-23T08:27:58;23.43;51.05
68867;SHT30;56451;44.804;20.476;2023-05-23T08:30:44;23.53;50.20
68867;SHT30;56451;44.804;20.476;2023-05-23T08:33:11;23.59;50.21
68867;SHT30;56451;44.804;20.476;2023-05-23T08:35:38;23.65;49.85
68867;SHT30;56451;44.804;20.476;2023-05-23T08:38:08;23.69;49.13
68867;SHT30;56451;44.804;20.476;2023-05-23T08:40:38;23.69;49.21
68867;SHT30;56451;44.804;20.476;2023-05-23T08:43:09;23.74;48.89
68867;SHT30;56451;44.804;20.476;2023-05-23T08:45:37;23.76;48.64
68867;SHT30;56451;44.804;20.476;2023-05-23T08:48:07;23.76;48.11
68867;SHT30;56451;44.804;20.476;2023-05-23T08:50:45;23.80;47.71
68867;SHT30;56451;44.804;20.476;2023-05-23T08:53:14;23.81;47.73
68867;SHT30;56451;44.804;20.476;2023-05-23T08:55:46;23.86;48.22
68867;SHT30;56451;44.804;20.476;2023-05-23T08:58:14;23.93;47.73
68867;SHT30;56451;44.804;20.476;2023-05-23T09:00:46;24.01;48.03
68867;SHT30;56451;44.804;20.476;2023-05-23T09:03:14;24.08;46.15
68867;SHT30;56451;44.804;20.476;2023-05-23T09:06:02;24.11;45.53
68867;SHT30;56451;44.804;20.476;2023-05-23T09:08:29;24.18;44.74
68867;SHT30;56451;44.804;20.476;2023-05-23T09:10:57;24.21;44.44
68867;SHT30;56451;44.804;20.476;2023-05-23T09:13:25;24.25;44.10
68867;SHT30;56451;44.804;20.476;2023-05-23T09:16:05;24.29;43.56
68867;SHT30;56451;44.804;20.476;2023-05-23T09:18:39;24.35;42.57
68867;SHT30;56451;44.804;20.476;2023-05-23T09:21:08;24.29;42.51
68867;SHT30;56451;44.804;20.476;2023-05-23T09:23:38;24.25;42.38
68867;SHT30;56451;44.804;20.476;2023-05-23T09:26:07;24.31;43.34
68867;SHT30;56451;44.804;20.476;2023-05-23T09:28:34;24.41;43.06
68867;SHT30;56451;44.804;20.476;2023-05-23T09:31:02;24.48;43.06
68867;SHT30;56451;44.804;20.476;2023-05-23T09:36:04;24.55;42.44
68867;SHT30;56451;44.804;20.476;2023-05-23T09:38:31;24.55;43.29
68867;SHT30;56451;44.804;20.476;2023-05-23T09:40:58;24.61;41.92
68867;SHT30;56451;44.804;20.476;2023-05-23T09:43:24;24.64;41.63
68867;SHT30;56451;44.804;20.476;2023-05-23T09:45:52;24.69;41.25
68867;SHT30;56451;44.804;20.476;2023-05-23T09:48:19;24.73;40.79
68867;SHT30;56451;44.804;20.476;2023-05-23T09:50:45;24.75;40.17
68867;SHT30;56451;44.804;20.476;2023-05-23T09:53:11;24.78;39.51
68867;SHT30;56451;44.804;20.476;2023-05-23T09:55:38;24.83;38.45
68867;SHT30;56451;44.804;20.476;2023-05-23T09:58:06;24.83;37.95
68867;SHT30;56451;44.804;20.476;2023-05-23T10:00:33;24.86;37.96
68867;SHT30;56451;44.804;20.476;2023-05-23T10:03:10;24.93;37.46
68867;SHT30;56451;44.804;20.476;2023-05-23T10:05:47;25.00;37.19
68867;SHT30;56451;44.804;20.476;2023-05-23T10:08:16;25.06;38.14
68867;SHT30;56451;44.804;20.476;2023-05-23T10:13:24;25.13;37.08
68867;SHT30;56451;44.804;20.476;2023-05-23T10:15:54;25.07;36.82
68867;SHT30;56451;44.804;20.476;2023-05-23T10:18:28;25.09;36.95
68867;SHT30;56451;44.804;20.476;2023-05-23T10:20:58;25.13;37.11
68867;SHT30;56451;44.804;20.476;2023-05-23T10:23:30;25.16;38.96
68867;SHT30;56451;44.804;20.476;2023-05-23T10:25:57;25.23;39.06
68867;SHT30;56451;44.804;20.476;2023-05-23T10:28:23;25.34;39.13
68867;SHT30;56451;44.804;20.476;2023-05-23T10:30:49;25.43;39.75
68867;SHT30;56451;44.804;20.476;2023-05-23T10:33:16;25.53;39.24
68867;SHT30;56451;44.804;20.476;2023-05-23T10:36:17;25.57;39.75
68867;SHT30;56451;44.804;20.476;2023-05-23T10:39:01;25.63;40.71
68867;SHT30;56451;44.804;20.476;2023-05-23T10:41:37;25.60;39.07
68867;SHT30;56451;44.804;20.476;2023-05-23T10:44:17;25.57;39.93
68867;SHT30;56451;44.804;20.476;2023-05-23T10:49:20;25.64;40.01
68867;SHT30;56451;44.804;20.476;2023-05-23T10:51:48;25.63;40.57
68867;SHT30;56451;44.804;20.476;2023-05-23T10:54:17;25.68;40.48
68867;SHT30;56451;44.804;20.476;2023-05-23T10:56:44;25.71;39.94
68867;SHT30;56451;44.804;20.476;2023-05-23T10:59:21;25.80;39.28
68867;SHT30;56451;44.804;20.476;2023-05-23T11:01:50;25.84;38.86
68867;SHT30;56451;44.804;20.476;2023-05-23T11:04:27;25.88;38.08
68867;SHT30;56451;44.804;20.476;2023-05-23T11:06:54;25.82;38.03
68867;SHT30;56451;44.804;20.476;2023-05-23T11:09:22;25.84;38.57
68867;SHT30;56451;44.804;20.476;2023-05-23T11:12:02;25.92;38.29
68867;SHT30;56451;44.804;20.476;2023-05-23T11:16:56;26.03;40.04
68867;SHT30;56451;44.804;20.476;2023-05-23T11:19:23;26.05;40.08
68867;SHT30;56451;44.804;20.476;2023-05-23T11:22:02;26.15;39.91
68867;SHT30;56451;44.804;20.476;2023-05-23T11:24:50;26.23;39.23
68867;SHT30;56451;44.804;20.476;2023-05-23T11:30:03;26.30;38.95
68867;SHT30;56451;44.804;20.476;2023-05-23T11:32:30;26.29;38.39
68867;SHT30;56451;44.804;20.476;2023-05-23T11:35:01;26.30;38.01
68867;SHT30;56451;44.804;20.476;2023-05-23T11:37:28;26.30;37.88
68867;SHT30;56451;44.804;20.476;2023-05-23T11:39:54;26.29;38.78
68867;SHT30;56451;44.804;20.476;2023-05-23T11:42:21;26.39;39.38
68867;SHT30;56451;44.804;20.476;2023-05-23T11:44:48;26.44;38.99
68867;SHT30;56451;44.804;20.476;2023-05-23T11:47:15;26.41;38.95
68867;SHT30;56451;44.804;20.476;2023-05-23T11:49:43;26.51;39.70
68867;SHT30;56451;44.804;20.476;2023-05-23T11:52:09;26.61;37.69
68867;SHT30;56451;44.804;20.476;2023-05-23T11:54:35;26.64;37.51
68867;SHT30;56451;44.804;20.476;2023-05-23T11:57:01;26.67;38.22
68867;SHT30;56451;44.804;20.476;2023-05-23T11:59:28;26.76;38.54
68867;SHT30;56451;44.804;20.476;2023-05-23T12:01:55;26.84;38.61
68867;SHT30;56451;44.804;20.476;2023-05-23T12:04:21;26.91;38.62
68867;SHT30;56451;44.804;20.476;2023-05-23T12:06:48;26.99;39.53
68867;SHT30;56451;44.804;20.476;2023-05-23T12:09:15;27.07;39.70
68867;SHT30;56451;44.804;20.476;2023-05-23T12:11:42;27.04;40.02
68867;SHT30;56451;44.804;20.476;2023-05-23T12:14:14;27.14;40.13
68867;SHT30;56451;44.804;20.476;2023-05-23T12:16:42;27.09;40.20
68867;SHT30;56451;44.804;20.476;2023-05-23T12:19:10;27.05;40.38
68867;SHT30;56451;44.804;20.476;2023-05-23T12:21:46;27.09;40.53
68867;SHT30;56451;44.804;20.476;2023-05-23T12:24:19;26.99;40.58
68867;SHT30;56451;44.804;20.476;2023-05-23T12:26:52;26.97;40.36
68867;SHT30;56451;44.804;20.476;2023-05-23T12:29:39;26.97;39.93
68867;SHT30;56451;44.804;20.476;2023-05-23T12:32:06;26.92;40.94
68867;SHT30;56451;44.804;20.476;2023-05-23T12:34:32;26.92;40.64
68867;SHT30;56451;44.804;20.476;2023-05-23T12:37:00;26.86;40.84
68867;SHT30;56451;44.804;20.476;2023-05-23T12:39:29;26.80;40.98
68867;SHT30;56451;44.804;20.476;2023-05-23T12:42:06;26.73;41.07
68867;SHT30;56451;44.804;20.476;2023-05-23T12:44:32;26.78;41.63
68867;SHT30;56451;44.804;20.476;2023-05-23T12:46:59;26.84;41.97
68867;SHT30;56451;44.804;20.476;2023-05-23T12:49:25;26.86;41.65
68867;SHT30;56451;44.804;20.476;2023-05-23T12:51:51;26.86;41.68
68867;SHT30;56451;44.804;20.476;2023-05-23T12:54:17;27.01;41.65
68867;SHT30;56451;44.804;20.476;2023-05-23T12:56:43;27.15;41.67
68867;SHT30;56451;44.804;20.476;2023-05-23T12:59:09;27.32;40.70
68867;SHT30;56451;44.804;20.476;2023-05-23T13:01:35;27.29;40.66
68867;SHT30;56451;44.804;20.476;2023-05-23T13:04:01;27.41;40.71
68867;SHT30;56451;44.804;20.476;2023-05-23T13:06:27;27.45;40.09
68867;SHT30;56451;44.804;20.476;2023-05-23T13:08:53;27.43;39.98
68867;SHT30;56451;44.804;20.476;2023-05-23T13:11:20;27.55;39.72
68867;SHT30;56451;44.804;20.476;2023-05-23T13:13:49;27.62;39.25
68867;SHT30;56451;44.804;20.476;2023-05-23T13:16:16;27.66;38.99
68867;SHT30;56451;44.804;20.476;2023-05-23T13:18:42;27.59;38.37
68867;SHT30;56451;44.804;20.476;2023-05-23T13:21:08;27.62;38.43
68867;SHT30;56451;44.804;20.476;2023-05-23T13:23:34;27.63;38.29
68867;SHT30;56451;44.804;20.476;2023-05-23T13:26:01;27.76;38.34
68867;SHT30;56451;44.804;20.476;2023-05-23T13:28:27;27.82;38.09
68867;SHT30;56451;44.804;20.476;2023-05-23T13:30:53;27.86;38.14
68867;SHT30;56451;44.804;20.476;2023-05-23T13:33:19;27.97;37.68
68867;SHT30;56451;44.804;20.476;2023-05-23T13:35:48;28.04;36.76
68867;SHT30;56451;44.804;20.476;2023-05-23T13:38:18;28.08;37.01
68867;SHT30;56451;44.804;20.476;2023-05-23T13:40:44;28.24;37.02
68867;SHT30;56451;44.804;20.476;2023-05-23T13:43:10;28.27;36.20
68867;SHT30;56451;44.804;20.476;2023-05-23T13:45:36;28.24;36.18
68867;SHT30;56451;44.804;20.476;2023-05-23T13:48:03;28.38;36.79
68867;SHT30;56451;44.804;20.476;2023-05-23T13:50:29;28.49;35.88
68867;SHT30;56451;44.804;20.476;2023-05-23T13:52:55;28.52;36.44
68867;SHT30;56451;44.804;20.476;2023-05-23T13:55:22;28.56;36.20
68867;SHT30;56451;44.804;20.476;2023-05-23T13:57:47;28.62;35.99
68867;SHT30;56451;44.804;20.476;2023-05-23T14:00:14;28.53;36.30
68867;SHT30;56451;44.804;20.476;2023-05-23T14:02:41;28.49;36.19
68867;SHT30;56451;44.804;20.476;2023-05-23T14:05:07;28.48;36.35
68867;SHT30;56451;44.804;20.476;2023-05-23T14:07:33;28.56;36.23
68867;SHT30;56451;44.804;20.476;2023-05-23T14:09:59;28.75;35.99
68867;SHT30;56451;44.804;20.476;2023-05-23T14:12:25;28.86;35.74
68867;SHT30;56451;44.804;20.476;2023-05-23T14:14:51;28.96;35.07
68867;SHT30;56451;44.804;20.476;2023-05-23T14:17:18;29.06;34.73
68867;SHT30;56451;44.804;20.476;2023-05-23T14:19:44;29.07;33.70
68867;SHT30;56451;44.804;20.476;2023-05-23T14:22:10;29.00;33.86
68867;SHT30;56451;44.804;20.476;2023-05-23T14:24:36;28.92;33.36
68867;SHT30;56451;44.804;20.476;2023-05-23T14:27:03;28.92;33.19
68867;SHT30;56451;44.804;20.476;2023-05-23T14:29:29;29.00;33.50
68867;SHT30;56451;44.804;20.476;2023-05-23T14:31:55;28.98;32.92
68867;SHT30;56451;44.804;20.476;2023-05-23T14:34:21;28.95;33.13
68867;SHT30;56451;44.804;20.476;2023-05-23T14:36:48;29.04;32.60
68867;SHT30;56451;44.804;20.476;2023-05-23T14:39:14;29.07;32.53
68867;SHT30;56451;44.804;20.476;2023-05-23T14:41:40;28.98;33.38
68867;SHT30;56451;44.804;20.476;2023-05-23T14:44:07;29.02;33.15
68867;SHT30;56451;44.804;20.476;2023-05-23T14:46:33;29.02;33.41
68867;SHT30;56451;44.804;20.476;2023-05-23T14:48:58;29.03;33.38
68867;SHT30;56451;44.804;20.476;2023-05-23T14:51:24;29.00;33.60
68867;SHT30;56451;44.804;20.476;2023-05-23T14:53:50;29.03;33.91
68867;SHT30;56451;44.804;20.476;2023-05-23T14:56:16;29.03;34.03
68867;SHT30;56451;44.804;20.476;2023-05-23T14:58:42;29.14;34.14
68867;SHT30;56451;44.804;20.476;2023-05-23T15:01:11;29.19;34.67
68867;SHT30;56451;44.804;20.476;2023-05-23T15:03:37;29.29;34.76
68867;SHT30;56451;44.804;20.476;2023-05-23T15:06:04;29.38;34.19
68867;SHT30;56451;44.804;20.476;2023-05-23T15:08:31;29.46;34.05
68867;SHT30;56451;44.804;20.476;2023-05-23T15:10:58;29.51;33.44
68867;SHT30;56451;44.804;20.476;2023-05-23T15:13:25;29.50;33.61
68867;SHT30;56451;44.804;20.476;2023-05-23T15:15:51;29.44;33.85
68867;SHT30;56451;44.804;20.476;2023-05-23T15:18:19;29.48;33.61
68867;SHT30;56451;44.804;20.476;2023-05-23T15:20:45;29.41;33.43
68867;SHT30;56451;44.804;20.476;2023-05-23T15:23:11;29.35;33.11
68867;SHT30;56451;44.804;20.476;2023-05-23T15:25:37;29.30;33.02
68867;SHT30;56451;44.804;20.476;2023-05-23T15:28:04;29.38;33.14
68867;SHT30;56451;44.804;20.476;2023-05-23T15:30:30;29.38;32.58
68867;SHT30;56451;44.804;20.476;2023-05-23T15:32:56;29.53;33.09
68867;SHT30;56451;44.804;20.476;2023-05-23T15:35:22;29.67;32.70
68867;SHT30;56451;44.804;20.476;2023-05-23T15:37:48;29.74;31.78
68867;SHT30;56451;44.804;20.476;2023-05-23T15:40:14;29.77;31.40